Time;durP1;ratioP1;P1;durP2;ratioP2;P2;SDS_P1;SDS_P2;PMS_P1;PMS_P2;Temp;Humidity;BMP_temperature;BMP_pressure;BME280_temperature;BME280_humidity;BME280_pressure;Samples;Min_cycle;Max_cycle;Signal;HPM_P1;HPM_P2
2022/07/31 00:01:35;;;;;;;2.22;1.77;;;22.50;58.90;;;;;;5075365;28;20048;-74
2022/07/31 00:04:01;;;;;;;2.58;1.98;;;22.50;59.00;;;;;;5075536;28;20472;-73
2022/07/31 00:06:26;;;;;;;3.53;1.90;;;22.40;59.10;;;;;;5075295;28;20039;-73
2022/07/31 00:08:52;;;;;;;4.10;1.90;;;22.50;59.20;;;;;;5075316;28;20008;-73
2022/07/31 00:11:18;;;;;;;1.95;1.70;;;22.40;59.20;;;;;;5075416;28;20066;-73
2022/07/31 00:13:43;;;;;;;2.83;1.88;;;22.30;59.30;;;;;;5092416;28;20016;-73
2022/07/31 00:16:09;;;;;;;3.50;1.90;;;22.30;59.40;;;;;;5075089;28;20020;-74
2022/07/31 00:18:35;;;;;;;3.17;1.65;;;22.30;60.10;;;;;;5093297;28;20103;-74
2022/07/31 00:21:01;;;;;;;2.40;1.60;;;22.30;59.70;;;;;;5074791;28;20111;-74
2022/07/31 00:23:27;;;;;;;2.45;1.73;;;22.20;59.70;;;;;;5074708;28;20024;-74
2022/07/31 00:25:53;;;;;;;2.15;1.88;;;22.20;59.90;;;;;;5091550;28;20476;-74
2022/07/31 00:28:19;;;;;;;1.92;1.60;;;22.10;60.00;;;;;;5093157;28;20031;-74
2022/07/31 00:30:44;;;;;;;2.35;1.92;;;22.10;60.10;;;;;;5074219;28;20027;-74
2022/07/31 00:33:10;;;;;;;4.93;1.77;;;22.00;60.10;;;;;;5093007;28;20095;-74
2022/07/31 00:35:35;;;;;;;3.35;1.90;;;22.00;60.20;;;;;;5074643;28;20157;-73
2022/07/31 00:38:01;;;;;;;3.83;1.98;;;22.00;60.30;;;;;;5092958;28;20446;-74
2022/07/31 00:40:27;;;;;;;3.67;1.77;;;22.00;60.40;;;;;;5074469;28;20073;-74
2022/07/31 00:42:52;;;;;;;2.55;1.75;;;22.00;60.40;;;;;;5074449;28;20021;-73
2022/07/31 00:45:18;;;;;;;1.75;1.63;;;22.00;60.50;;;;;;5074379;28;20483;-74
2022/07/31 00:47:43;;;;;;;2.08;1.88;;;21.90;60.50;;;;;;5074975;28;20490;-73
2022/07/31 00:50:10;;;;;;;3.50;1.95;;;22.00;60.60;;;;;;5092536;28;20077;-74
2022/07/31 00:52:36;;;;;;;3.67;1.85;;;21.90;60.60;;;;;;5092586;28;20031;-74
2022/07/31 00:55:02;;;;;;;3.22;1.80;;;21.90;60.70;;;;;;5092599;28;20034;-73
2022/07/31 00:57:27;;;;;;;1.60;1.50;;;21.90;60.70;;;;;;5074185;28;20028;-74
2022/07/31 00:59:53;;;;;;;3.10;1.80;;;21.90;60.90;;;;;;5092584;28;20027;-73
2022/07/31 01:02:19;;;;;;;2.35;2.00;;;21.90;60.90;;;;;;5075882;28;20107;-77
2022/07/31 01:04:44;;;;;;;2.40;1.90;;;21.90;60.90;;;;;;5092831;28;20106;-77
2022/07/31 01:07:10;;;;;;;2.25;1.60;;;21.90;60.90;;;;;;5074921;28;20016;-78
2022/07/31 01:09:35;;;;;;;2.97;1.77;;;21.90;61.00;;;;;;5092991;28;20025;-77
2022/07/31 01:12:23;;;;;;;1.98;1.60;;;21.80;61.00;;;;;;5093249;28;20044;-78
2022/07/31 01:14:55;;;;;;;3.22;1.77;;;21.80;61.10;;;;;;5092813;28;20031;-78
2022/07/31 01:17:23;;;;;;;1.80;1.50;;;21.70;61.20;;;;;;5093381;28;20021;-77
2022/07/31 01:19:50;;;;;;;1.92;1.50;;;21.70;61.30;;;;;;5093182;28;20081;-77
2022/07/31 01:22:25;;;;;;;6.07;2.03;;;21.60;61.50;;;;;;5092806;28;20047;-77
2022/07/31 01:25:15;;;;;;;2.45;1.60;;;21.60;61.60;;;;;;5074415;28;20028;-78
2022/07/31 01:28:10;;;;;;;2.10;1.90;;;21.60;61.80;;;;;;5074661;28;20031;-78
2022/07/31 01:30:55;;;;;;;2.47;1.92;;;21.60;61.80;;;;;;5092919;28;20055;-78
2022/07/31 01:33:26;;;;;;;2.60;1.70;;;21.60;61.80;;;;;;5091392;28;20553;-78
2022/07/31 01:36:04;;;;;;;1.80;1.70;;;21.60;61.90;;;;;;5092665;28;20135;-78
2022/07/31 01:38:37;;;;;;;4.03;1.88;;;21.60;62.00;;;;;;5074687;28;20035;-77
2022/07/31 01:41:07;;;;;;;4.05;1.80;;;21.60;62.10;;;;;;5092966;28;20028;-77
2022/07/31 01:43:41;;;;;;;2.75;1.58;;;21.50;62.00;;;;;;5096886;28;20039;-77
2022/07/31 01:46:11;;;;;;;2.15;1.70;;;21.50;62.10;;;;;;5095219;28;20506;-77
2022/07/31 01:48:38;;;;;;;3.78;1.77;;;21.60;62.20;;;;;;5078429;28;20118;-77
2022/07/31 01:51:05;;;;;;;2.45;1.98;;;21.50;62.30;;;;;;5096619;28;20484;-78
2022/07/31 01:53:31;;;;;;;2.20;1.88;;;21.50;62.40;;;;;;5095265;28;20101;-78
2022/07/31 01:55:58;;;;;;;3.05;1.88;;;21.50;62.40;;;;;;5097019;28;20032;-78
2022/07/31 01:58:25;;;;;;;2.00;1.55;;;21.50;62.40;;;;;;5095238;28;20028;-78
2022/07/31 02:00:55;;;;;;;2.38;1.80;;;21.50;62.60;;;;;;5095171;28;20079;-79
2022/07/31 02:03:22;;;;;;;3.00;1.67;;;21.50;62.70;;;;;;5094989;28;20497;-79
2022/07/31 02:05:49;;;;;;;2.58;2.17;;;21.40;62.80;;;;;;5096602;28;20109;-78
2022/07/31 02:08:17;;;;;;;2.17;1.48;;;21.50;62.90;;;;;;5095350;28;20036;-78
2022/07/31 02:10:44;;;;;;;2.20;1.60;;;21.40;63.00;;;;;;5096785;28;20016;-78
2022/07/31 02:13:12;;;;;;;4.63;1.92;;;21.40;63.10;;;;;;5096809;28;20024;-79
2022/07/31 02:15:41;;;;;;;1.60;1.50;;;21.40;63.20;;;;;;5095840;28;20023;-78
2022/07/31 02:18:09;;;;;;;1.60;1.50;;;21.40;63.30;;;;;;5096421;28;20034;-79
2022/07/31 02:20:38;;;;;;;1.58;1.38;;;21.30;63.30;;;;;;5095374;28;20052;-78
2022/07/31 02:23:04;;;;;;;1.75;1.60;;;21.30;63.40;;;;;;5078695;28;20053;-78
2022/07/31 02:25:34;;;;;;;1.60;1.50;;;21.30;63.60;;;;;;5096211;28;20027;-78
2022/07/31 02:28:01;;;;;;;1.77;1.55;;;21.30;63.70;;;;;;5095147;28;20470;-79
2022/07/31 02:30:29;;;;;;;2.63;1.77;;;21.20;63.80;;;;;;5095752;28;20387;-78
2022/07/31 02:32:56;;;;;;;3.22;1.70;;;21.20;63.90;;;;;;5094426;28;20043;-78
2022/07/31 02:35:22;;;;;;;1.98;1.70;;;21.20;64.00;;;;;;5095586;28;20048;-78
2022/07/31 02:37:50;;;;;;;2.38;1.50;;;21.10;64.00;;;;;;5094284;28;20525;-79
2022/07/31 02:43:38;;;;;;;1.73;1.60;;;21.10;64.30;;;;;;5096384;28;20030;-79
2022/07/31 02:46:05;;;;;;;2.85;1.80;;;21.00;64.30;;;;;;5095680;28;20035;-78
2022/07/31 02:48:31;;;;;;;1.65;1.55;;;21.00;64.30;;;;;;5095677;28;20391;-79
2022/07/31 02:50:58;;;;;;;2.15;1.95;;;21.10;64.40;;;;;;5095298;28;20035;-78
2022/07/31 02:53:24;;;;;;;1.75;1.63;;;21.10;64.50;;;;;;5093426;28;20062;-79
2022/07/31 02:55:51;;;;;;;2.53;1.55;;;21.10;64.50;;;;;;5094228;28;20079;-79
2022/07/31 02:58:16;;;;;;;2.53;1.50;;;21.10;64.50;;;;;;5095533;28;20491;-78
2022/07/31 03:00:42;;;;;;;2.60;1.73;;;21.10;64.50;;;;;;5095542;28;20028;-78
2022/07/31 03:03:08;;;;;;;2.03;1.50;;;21.20;64.60;;;;;;5076995;28;20043;-78
2022/07/31 03:05:33;;;;;;;1.70;1.60;;;21.20;64.60;;;;;;5095228;28;20028;-78
2022/07/31 03:07:59;;;;;;;3.22;1.58;;;21.20;64.60;;;;;;5095023;28;20039;-78
2022/07/31 03:10:24;;;;;;;3.20;1.70;;;21.20;64.70;;;;;;5076869;28;20023;-78
2022/07/31 03:12:53;;;;;;;2.75;1.52;;;21.20;64.70;;;;;;5076682;28;20020;-79
2022/07/31 03:15:22;;;;;;;1.92;1.70;;;21.20;64.70;;;;;;5093545;28;20568;-78
2022/07/31 03:17:48;;;;;;;1.58;1.48;;;21.20;64.90;;;;;;5093887;28;20115;-78
2022/07/31 03:20:14;;;;;;;1.70;1.60;;;21.20;65.00;;;;;;5093504;28;20036;-78
2022/07/31 03:22:41;;;;;;;2.72;1.70;;;21.20;65.00;;;;;;5094910;28;20024;-79
2022/07/31 03:25:07;;;;;;;2.75;1.55;;;21.20;65.10;;;;;;5076921;28;20032;-79
2022/07/31 03:27:33;;;;;;;1.67;1.40;;;21.20;65.10;;;;;;5076616;28;20479;-78
2022/07/31 03:29:58;;;;;;;3.08;1.70;;;21.20;65.10;;;;;;5094950;28;20026;-78
2022/07/31 03:32:24;;;;;;;4.60;1.50;;;21.20;65.10;;;;;;5094403;28;20028;-78
2022/07/31 03:34:49;;;;;;;1.48;1.38;;;21.20;65.10;;;;;;5072975;28;20037;-79
2022/07/31 03:37:15;;;;;;;2.25;1.70;;;21.20;65.20;;;;;;5074715;28;20074;-78
2022/07/31 03:39:41;;;;;;;2.20;1.60;;;21.20;65.20;;;;;;5072831;28;20028;-79
2022/07/31 03:42:08;;;;;;;2.17;1.50;;;21.20;65.30;;;;;;5072491;28;20523;-79
2022/07/31 03:44:35;;;;;;;1.95;1.67;;;21.20;65.30;;;;;;5073803;28;20021;-79
2022/07/31 03:47:00;;;;;;;2.10;1.73;;;21.20;65.30;;;;;;5089440;28;20040;-78
2022/07/31 03:49:26;;;;;;;3.70;1.70;;;21.20;65.40;;;;;;5072387;28;20021;-78
2022/07/31 03:51:53;;;;;;;3.15;1.92;;;21.20;65.40;;;;;;5072246;28;20024;-80
2022/07/31 03:54:19;;;;;;;2.10;1.70;;;21.20;65.50;;;;;;5073537;28;20025;-79
2022/07/31 03:56:48;;;;;;;4.68;2.00;;;21.20;65.50;;;;;;5073338;28;20073;-78
2022/07/31 03:59:15;;;;;;;3.22;1.90;;;21.20;65.70;;;;;;5072287;28;20028;-78
2022/07/31 04:01:42;;;;;;;3.10;1.95;;;21.20;65.80;;;;;;5089369;28;20483;-79
2022/07/31 04:04:08;;;;;;;2.38;2.17;;;21.20;65.80;;;;;;5073084;28;20027;-78
2022/07/31 04:06:33;;;;;;;3.53;2.17;;;21.20;66.00;;;;;;5073547;28;20052;-78
2022/07/31 04:09:02;;;;;;;2.60;2.38;;;21.10;66.10;;;;;;5072371;28;20033;-78
2022/07/31 04:11:28;;;;;;;4.22;2.70;;;21.10;66.20;;;;;;5073825;28;20031;-78
2022/07/31 04:13:54;;;;;;;3.08;2.75;;;21.10;66.30;;;;;;5089360;28;20058;-79
2022/07/31 04:16:20;;;;;;;3.05;2.55;;;21.10;66.40;;;;;;5089482;28;20432;-79
2022/07/31 04:18:46;;;;;;;3.75;2.65;;;21.10;66.50;;;;;;5074294;28;20069;-79
2022/07/31 04:21:11;;;;;;;3.95;2.70;;;21.10;66.60;;;;;;5073857;28;20373;-79
2022/07/31 04:23:37;;;;;;;3.28;2.70;;;21.10;66.70;;;;;;5073438;28;20028;-78
2022/07/31 04:26:03;;;;;;;3.92;2.80;;;21.10;66.80;;;;;;5072031;28;20029;-80
2022/07/31 04:28:28;;;;;;;2.90;2.60;;;21.10;66.90;;;;;;5073043;28;20025;-78
2022/07/31 04:30:54;;;;;;;3.17;2.83;;;21.00;66.90;;;;;;5072074;28;20025;-78
2022/07/31 04:33:20;;;;;;;3.47;2.88;;;21.10;67.00;;;;;;5075913;28;20035;-79
2022/07/31 04:35:45;;;;;;;4.05;2.90;;;21.00;67.10;;;;;;5074976;28;20065;-78
2022/07/31 04:38:11;;;;;;;3.25;2.60;;;21.00;67.20;;;;;;5075273;28;20028;-78
2022/07/31 04:40:37;;;;;;;5.38;2.80;;;21.00;67.30;;;;;;5075123;28;20024;-78
2022/07/31 04:43:03;;;;;;;3.15;2.60;;;21.00;67.40;;;;;;5074904;28;20060;-78
2022/07/31 04:45:28;;;;;;;3.00;2.55;;;21.00;67.60;;;;;;5093086;28;20063;-78
2022/07/31 04:47:54;;;;;;;3.70;2.88;;;21.00;67.70;;;;;;5074468;28;20082;-79
2022/07/31 04:50:20;;;;;;;4.70;3.22;;;21.00;67.80;;;;;;5074731;28;20032;-78
2022/07/31 04:52:45;;;;;;;3.95;2.97;;;21.00;68.00;;;;;;5074678;28;20061;-78
2022/07/31 04:55:11;;;;;;;5.05;3.40;;;21.00;68.10;;;;;;5074577;28;20123;-78
2022/07/31 04:57:37;;;;;;;3.67;3.28;;;21.00;68.20;;;;;;5092844;28;20032;-78
2022/07/31 05:00:05;;;;;;;9.00;3.70;;;21.00;68.40;;;;;;5074703;28;20400;-79
2022/07/31 05:02:30;;;;;;;6.00;3.60;;;21.00;68.60;;;;;;5093078;28;20031;-79
2022/07/31 05:04:56;;;;;;;4.65;3.90;;;20.90;68.70;;;;;;5074809;28;20496;-78
2022/07/31 05:07:22;;;;;;;4.32;3.60;;;20.90;68.80;;;;;;5075177;28;20024;-78
2022/07/31 05:09:47;;;;;;;5.85;3.78;;;20.90;68.90;;;;;;5074918;28;20024;-78
2022/07/31 05:12:13;;;;;;;6.10;3.70;;;20.90;68.90;;;;;;5074901;28;20028;-78
2022/07/31 05:14:39;;;;;;;7.13;3.85;;;21.00;69.00;;;;;;5093093;28;20020;-78
2022/07/31 05:17:05;;;;;;;5.55;3.83;;;21.00;69.10;;;;;;5092672;28;20028;-78
2022/07/31 05:19:30;;;;;;;6.47;3.88;;;21.00;69.20;;;;;;5093138;28;20035;-78
2022/07/31 05:21:58;;;;;;;5.65;3.92;;;21.00;69.40;;;;;;5075224;28;20119;-78
2022/07/31 05:24:24;;;;;;;6.00;4.00;;;21.00;69.50;;;;;;5075987;28;20028;-78
2022/07/31 05:26:49;;;;;;;5.85;4.00;;;21.00;69.60;;;;;;5075437;28;20119;-78
2022/07/31 05:29:15;;;;;;;6.07;3.60;;;21.00;69.60;;;;;;5075524;28;20031;-79
2022/07/31 05:31:41;;;;;;;7.40;3.42;;;21.10;69.70;;;;;;5093479;28;20020;-79
2022/07/31 05:34:06;;;;;;;4.32;3.42;;;21.20;69.60;;;;;;5075568;28;20040;-78
2022/07/31 05:36:32;;;;;;;4.82;3.38;;;21.30;69.60;;;;;;5075768;28;20093;-80
2022/07/31 05:38:58;;;;;;;4.22;3.30;;;21.30;69.50;;;;;;5075105;28;20065;-78
2022/07/31 05:41:23;;;;;;;4.20;3.38;;;21.30;69.40;;;;;;5075102;28;20028;-77
2022/07/31 05:43:49;;;;;;;4.72;3.58;;;21.30;69.40;;;;;;5074938;28;20032;-77
2022/07/31 05:46:16;;;;;;;5.72;3.15;;;21.40;69.40;;;;;;5093391;28;20035;-77
2022/07/31 05:48:42;;;;;;;6.50;4.38;;;21.40;69.40;;;;;;5093246;28;20027;-78
2022/07/31 05:51:12;;;;;;;5.25;4.38;;;21.40;69.30;;;;;;5092565;28;20539;-77
2022/07/31 05:53:39;;;;;;;4.75;3.83;;;21.50;69.20;;;;;;5091093;28;20365;-78
2022/07/31 05:56:05;;;;;;;8.18;4.90;;;21.60;69.10;;;;;;5091234;28;20039;-78
2022/07/31 05:58:31;;;;;;;6.15;4.88;;;21.50;69.10;;;;;;5074156;28;20028;-78
2022/07/31 06:00:57;;;;;;;6.45;4.78;;;21.50;69.20;;;;;;5092954;28;20502;-78
2022/07/31 06:03:26;;;;;;;5.38;4.35;;;21.50;69.30;;;;;;5093023;28;20040;-78
2022/07/31 06:05:52;;;;;;;6.80;5.47;;;21.40;69.40;;;;;;5092536;28;20092;-79
2022/07/31 06:08:18;;;;;;;5.50;4.85;;;21.30;69.40;;;;;;5093127;28;20099;-78
2022/07/31 06:10:44;;;;;;;6.25;5.10;;;21.30;69.50;;;;;;5093410;28;20031;-78
2022/07/31 06:13:11;;;;;;;6.65;5.22;;;21.30;69.50;;;;;;5074894;28;20020;-78
2022/07/31 06:15:36;;;;;;;6.13;5.53;;;21.30;69.60;;;;;;5093029;28;20031;-78
2022/07/31 06:18:02;;;;;;;5.22;4.72;;;21.20;69.70;;;;;;5076041;28;20031;-79
2022/07/31 06:20:28;;;;;;;6.90;5.60;;;21.20;69.70;;;;;;5075023;28;20060;-79
2022/07/31 06:22:54;;;;;;;8.00;5.55;;;21.10;69.80;;;;;;5092426;28;20032;-79
2022/07/31 06:25:20;;;;;;;6.38;5.05;;;21.10;69.90;;;;;;5092600;28;20028;-78
2022/07/31 06:27:46;;;;;;;8.20;5.25;;;21.10;70.00;;;;;;5093616;28;20348;-79
2022/07/31 06:30:12;;;;;;;7.05;5.15;;;21.10;70.00;;;;;;5077558;28;20020;-78
2022/07/31 06:32:38;;;;;;;6.63;5.57;;;21.10;70.20;;;;;;5096640;28;20486;-78
2022/07/31 06:35:05;;;;;;;7.20;5.18;;;21.10;70.20;;;;;;5077387;28;20071;-78
2022/07/31 06:37:31;;;;;;;9.10;5.30;;;21.10;70.20;;;;;;5095720;28;20413;-78
2022/07/31 06:39:56;;;;;;;7.00;5.05;;;21.10;70.40;;;;;;5077203;28;20051;-78
2022/07/31 06:42:23;;;;;;;8.25;4.97;;;21.20;70.40;;;;;;5096087;28;20020;-79
2022/07/31 06:44:49;;;;;;;6.07;5.22;;;21.20;70.30;;;;;;5095134;28;20024;-78
2022/07/31 06:47:16;;;;;;;5.93;5.25;;;21.30;70.30;;;;;;5077103;28;20510;-79
2022/07/31 06:49:42;;;;;;;6.75;5.30;;;21.30;70.90;;;;;;5094495;28;20035;-78
2022/07/31 06:52:08;;;;;;;6.65;5.60;;;21.40;70.20;;;;;;5077261;28;20016;-78
2022/07/31 06:54:33;;;;;;;7.03;5.63;;;21.50;70.20;;;;;;5077582;28;20477;-78
2022/07/31 06:56:59;;;;;;;9.25;5.45;;;21.60;70.00;;;;;;5077153;28;20028;-78
2022/07/31 06:59:24;;;;;;;7.80;5.13;;;21.60;69.80;;;;;;5095454;28;20079;-77
2022/07/31 07:01:50;;;;;;;7.47;5.45;;;21.70;69.70;;;;;;5077014;28;20310;-78
2022/07/31 07:04:15;;;;;;;7.57;5.53;;;21.70;69.60;;;;;;5095004;28;20027;-78
2022/07/31 07:06:41;;;;;;;9.57;6.00;;;21.70;69.60;;;;;;5094871;28;20028;-78
2022/07/31 07:09:07;;;;;;;7.28;5.43;;;21.70;69.60;;;;;;5096020;28;20025;-78
2022/07/31 07:11:33;;;;;;;6.90;5.78;;;21.60;69.70;;;;;;5078019;28;20393;-77
2022/07/31 07:13:58;;;;;;;7.70;5.82;;;21.70;69.70;;;;;;5095853;28;20111;-78
2022/07/31 07:16:24;;;;;;;7.93;5.60;;;21.70;69.60;;;;;;5077196;28;20060;-78
2022/07/31 07:18:50;;;;;;;8.73;5.78;;;21.70;69.50;;;;;;5095452;28;20402;-78
2022/07/31 07:21:16;;;;;;;9.07;5.88;;;21.70;69.50;;;;;;5077532;28;20024;-78
2022/07/31 07:23:41;;;;;;;8.00;5.88;;;21.70;69.40;;;;;;5078201;28;20474;-78
2022/07/31 07:26:07;;;;;;;8.18;6.40;;;21.70;69.50;;;;;;5096623;28;20035;-78
2022/07/31 07:28:33;;;;;;;7.20;5.65;;;21.70;69.50;;;;;;5095885;28;20016;-78
2022/07/31 07:30:59;;;;;;;8.32;5.32;;;21.60;69.60;;;;;;5095176;28;20479;-78
2022/07/31 07:33:25;;;;;;;6.82;5.70;;;21.70;69.60;;;;;;5094168;28;20039;-78
2022/07/31 07:35:51;;;;;;;7.05;5.15;;;21.70;69.50;;;;;;5095334;28;20028;-78
2022/07/31 07:38:16;;;;;;;7.13;5.35;;;21.70;69.50;;;;;;5076880;28;20024;-78
2022/07/31 07:40:42;;;;;;;6.07;5.47;;;21.70;69.50;;;;;;5094858;28;20035;-78
2022/07/31 07:43:08;;;;;;;8.63;6.28;;;21.70;69.50;;;;;;5076794;28;20367;-78
2022/07/31 07:45:33;;;;;;;8.13;5.63;;;21.70;69.60;;;;;;5076671;28;20035;-78
2022/07/31 07:47:59;;;;;;;6.03;5.43;;;21.70;69.60;;;;;;5077089;28;20066;-78
2022/07/31 07:50:25;;;;;;;8.48;5.13;;;21.80;69.60;;;;;;5095225;28;20038;-78
2022/07/31 07:56:12;;;;;;;6.93;5.28;;;21.80;69.60;;;;;;5094629;28;20077;-79
2022/07/31 07:58:39;;;;;;;6.50;4.70;;;21.80;69.50;;;;;;5076135;28;20027;-78
2022/07/31 08:01:05;;;;;;;7.40;5.30;;;21.80;69.60;;;;;;5092852;28;20051;-79
2022/07/31 08:03:30;;;;;;;5.57;4.90;;;21.80;69.70;;;;;;5094321;28;20106;-78
2022/07/31 08:05:56;;;;;;;5.78;5.00;;;21.80;69.80;;;;;;5075883;28;20028;-78
2022/07/31 08:08:22;;;;;;;6.28;4.55;;;21.80;69.90;;;;;;5094799;28;20024;-80
2022/07/31 08:10:47;;;;;;;8.10;5.10;;;21.80;69.90;;;;;;5076198;28;20023;-77
2022/07/31 08:13:13;;;;;;;7.15;4.70;;;21.80;70.00;;;;;;5075911;28;20150;-79
2022/07/31 08:15:39;;;;;;;6.57;5.32;;;21.80;70.00;;;;;;5094364;28;20028;-78
2022/07/31 08:18:04;;;;;;;6.00;5.05;;;21.80;69.90;;;;;;5076060;28;20463;-78
2022/07/31 08:20:30;;;;;;;5.18;4.43;;;21.90;69.90;;;;;;5094095;28;20548;-78
2022/07/31 08:22:56;;;;;;;7.68;5.40;;;22.00;69.80;;;;;;5075851;28;20085;-78
2022/07/31 08:25:21;;;;;;;8.80;5.45;;;22.10;69.70;;;;;;5075854;28;20027;-79
2022/07/31 08:27:48;;;;;;;8.18;4.95;;;22.20;69.80;;;;;;5076513;28;20468;-80
2022/07/31 08:30:14;;;;;;;5.40;4.80;;;22.20;69.60;;;;;;5076712;28;20021;-77
2022/07/31 08:32:40;;;;;;;7.35;4.88;;;22.30;69.60;;;;;;5094538;28;20515;-78
2022/07/31 08:35:06;;;;;;;6.35;4.78;;;22.40;69.60;;;;;;5093672;28;20079;-78
2022/07/31 08:37:32;;;;;;;8.15;5.10;;;22.40;69.40;;;;;;5094262;28;20028;-78
2022/07/31 08:39:58;;;;;;;6.72;4.70;;;22.50;69.30;;;;;;5094145;28;20017;-78
2022/07/31 08:42:24;;;;;;;6.50;5.45;;;22.60;69.20;;;;;;5075615;28;20031;-78
2022/07/31 08:44:50;;;;;;;6.47;4.63;;;22.70;69.10;;;;;;5094094;28;20020;-79
2022/07/31 08:47:16;;;;;;;7.47;4.25;;;22.80;68.90;;;;;;5094027;28;20032;-78
2022/07/31 08:49:47;;;;;;;6.40;4.53;;;22.90;68.80;;;;;;5093509;28;20081;-79
2022/07/31 08:52:18;;;;;;;5.88;4.30;;;23.00;68.50;;;;;;5091512;28;20028;-79
2022/07/31 08:54:45;;;;;;;7.07;4.60;;;23.20;68.40;;;;;;5093641;28;20020;-78
2022/07/31 08:57:11;;;;;;;6.78;4.45;;;23.30;68.10;;;;;;5094057;28;20186;-78
2022/07/31 08:59:40;;;;;;;5.35;4.30;;;23.40;68.00;;;;;;5092780;28;20063;-78
2022/07/31 09:02:06;;;;;;;7.57;4.93;;;23.50;67.70;;;;;;5092120;28;20024;-77
2022/07/31 09:04:31;;;;;;;7.55;4.78;;;23.60;67.50;;;;;;5094284;28;20099;-78
2022/07/31 09:06:59;;;;;;;5.60;3.88;;;23.60;67.30;;;;;;5075486;28;20126;-78
2022/07/31 09:09:25;;;;;;;5.53;4.22;;;23.70;67.30;;;;;;5094031;28;20020;-78
2022/07/31 09:11:54;;;;;;;5.10;4.45;;;23.80;67.10;;;;;;5092252;28;20085;-78
2022/07/31 09:14:33;;;;;;;6.18;4.60;;;23.80;67.00;;;;;;5092215;28;20050;-78
2022/07/31 09:17:00;;;;;;;5.57;4.15;;;23.70;66.90;;;;;;5091990;28;20016;-78
2022/07/31 09:19:41;;;;;;;6.10;4.85;;;23.70;66.90;;;;;;5093299;28;20047;-79
2022/07/31 09:22:17;;;;;;;4.57;4.00;;;23.60;67.00;;;;;;5094038;28;20534;-78
2022/07/31 09:24:43;;;;;;;6.78;5.13;;;23.60;67.10;;;;;;5093490;28;20096;-78
2022/07/31 09:27:09;;;;;;;7.65;5.38;;;23.60;67.20;;;;;;5074521;28;20032;-78
2022/07/31 09:29:41;;;;;;;6.15;4.43;;;23.50;67.30;;;;;;5093331;28;20026;-79
2022/07/31 09:32:18;;;;;;;5.87;4.70;;;23.60;67.50;;;;;;5091866;28;20043;-78
2022/07/31 09:34:45;;;;;;;5.38;4.72;;;23.50;67.60;;;;;;5091717;28;20294;-78
2022/07/31 09:37:14;;;;;;;7.05;5.00;;;23.60;67.50;;;;;;5091759;28;20123;-78
2022/07/31 09:39:40;;;;;;;6.38;4.65;;;23.70;67.40;;;;;;5093813;28;20035;-79
2022/07/31 09:42:07;;;;;;;5.60;4.75;;;23.70;67.40;;;;;;5092267;28;20439;-78
2022/07/31 09:44:41;;;;;;;6.82;4.72;;;23.70;67.30;;;;;;5093398;28;20092;-79
2022/07/31 09:47:17;;;;;;;7.18;5.15;;;23.80;67.30;;;;;;5092595;28;20207;-78
2022/07/31 09:49:43;;;;;;;7.20;5.15;;;23.70;67.50;;;;;;5091690;28;20028;-78
2022/07/31 09:52:18;;;;;;;6.70;5.05;;;23.60;67.90;;;;;;5074563;28;20139;-77
2022/07/31 09:54:44;;;;;;;6.80;5.45;;;23.60;68.20;;;;;;5092765;28;20204;-78
2022/07/31 09:57:12;;;;;;;7.10;5.60;;;23.50;69.30;;;;;;5093079;28;20420;-78
2022/07/31 09:59:38;;;;;;;6.88;5.22;;;23.50;69.10;;;;;;5093017;28;20085;-80
2022/07/31 10:02:06;;;;;;;6.63;5.18;;;23.40;69.30;;;;;;5078911;28;20131;-79
2022/07/31 10:04:32;;;;;;;6.93;5.40;;;23.30;69.50;;;;;;5100447;28;20092;-80
2022/07/31 10:06:58;;;;;;;5.43;4.78;;;23.30;69.80;;;;;;5081093;28;20087;-79
2022/07/31 10:09:25;;;;;;;7.70;6.13;;;23.30;69.90;;;;;;5095948;28;20035;-81
2022/07/31 10:11:52;;;;;;;7.75;5.93;;;23.40;70.10;;;;;;5077824;28;20459;-80
2022/07/31 10:14:22;;;;;;;8.98;6.05;;;23.30;70.30;;;;;;5078544;28;20024;-79
2022/07/31 10:16:53;;;;;;;8.35;5.70;;;23.30;70.70;;;;;;5095528;28;20634;-80
2022/07/31 10:19:21;;;;;;;7.38;5.57;;;23.30;71.00;;;;;;5078680;28;20024;-79
2022/07/31 10:21:53;;;;;;;7.60;5.85;;;23.30;71.30;;;;;;5095306;28;20035;-79
2022/07/31 10:24:21;;;;;;;8.63;6.18;;;23.30;71.70;;;;;;5077696;28;20089;-80
2022/07/31 10:26:48;;;;;;;7.60;5.93;;;23.30;71.90;;;;;;5096602;28;20483;-78
2022/07/31 10:29:16;;;;;;;7.63;6.13;;;23.30;72.00;;;;;;5077908;28;20114;-78
2022/07/31 10:31:43;;;;;;;8.73;6.35;;;23.30;72.30;;;;;;5096164;28;20024;-77
2022/07/31 10:34:11;;;;;;;8.45;6.28;;;23.40;72.40;;;;;;5078016;28;20040;-79
2022/07/31 10:36:39;;;;;;;10.27;7.15;;;23.40;72.50;;;;;;5074119;28;20044;-79
2022/07/31 10:39:14;;;;;;;8.02;6.65;;;23.50;72.60;;;;;;5095713;28;20096;-78
2022/07/31 10:41:54;;;;;;;7.03;6.22;;;23.50;72.50;;;;;;5095318;28;20028;-78
2022/07/31 10:44:34;;;;;;;9.25;7.15;;;23.60;72.70;;;;;;5077618;28;20060;-79
2022/07/31 10:47:14;;;;;;;7.55;6.05;;;23.60;72.60;;;;;;5077094;28;20381;-78
2022/07/31 10:49:45;;;;;;;8.68;7.72;;;23.60;72.60;;;;;;5077180;28;20081;-78
2022/07/31 10:52:10;;;;;;;8.40;6.85;;;23.60;72.70;;;;;;5076989;28;20032;-78
2022/07/31 10:54:45;;;;;;;8.70;6.93;;;23.70;72.80;;;;;;5077873;28;20020;-78
2022/07/31 10:57:40;;;;;;;7.97;7.13;;;23.80;72.70;;;;;;5095144;28;20475;-78
2022/07/31 11:00:11;;;;;;;7.60;6.90;;;23.90;72.60;;;;;;5064406;28;20062;-78
2022/07/31 11:02:37;;;;;;;8.98;7.57;;;23.90;72.40;;;;;;5095241;28;20483;-78
2022/07/31 11:05:10;;;;;;;8.98;7.78;;;23.90;72.00;;;;;;5093643;28;20479;-78
2022/07/31 11:07:36;;;;;;;7.95;7.18;;;23.90;71.80;;;;;;5077380;28;20439;-78
2022/07/31 11:10:13;;;;;;;9.98;8.00;;;23.90;71.70;;;;;;5077074;28;20166;-77
2022/07/31 11:12:39;;;;;;;9.25;8.25;;;23.90;71.80;;;;;;5094996;28;20035;-78
2022/07/31 11:15:20;;;;;;;9.45;8.43;;;23.80;71.80;;;;;;5076071;28;20104;-78
2022/07/31 11:17:46;;;;;;;9.27;8.38;;;23.80;72.00;;;;;;5094856;28;20107;-78
2022/07/31 11:20:29;;;;;;;11.43;10.02;;;23.60;72.10;;;;;;5076413;28;20059;-78
2022/07/31 11:23:00;;;;;;;10.68;9.57;;;23.50;72.60;;;;;;5076543;28;20131;-78
2022/07/31 11:25:31;;;;;;;9.57;8.73;;;23.40;73.10;;;;;;5094745;28;20081;-78
2022/07/31 11:28:08;;;;;;;9.55;8.63;;;23.30;73.30;;;;;;5094487;28;20043;-78
2022/07/31 11:30:56;;;;;;;9.90;8.95;;;23.40;73.40;;;;;;5095055;28;20466;-78
2022/07/31 11:33:34;;;;;;;10.88;9.88;;;23.40;73.50;;;;;;5092971;28;20399;-78
2022/07/31 11:36:15;;;;;;;10.70;9.38;;;23.50;73.80;;;;;;5093474;28;20032;-77
2022/07/31 11:38:43;;;;;;;11.40;9.52;;;23.50;73.90;;;;;;5093843;28;20028;-78
2022/07/31 11:41:10;;;;;;;10.23;9.23;;;23.60;74.00;;;;;;5093838;28;20119;-78
2022/07/31 11:43:38;;;;;;;10.32;9.27;;;23.60;74.00;;;;;;5094100;28;20032;-78
2022/07/31 11:46:04;;;;;;;11.38;9.73;;;23.60;74.00;;;;;;5093593;28;20028;-78
2022/07/31 11:48:31;;;;;;;12.05;9.70;;;23.50;74.10;;;;;;5093567;28;20028;-77
2022/07/31 11:50:58;;;;;;;10.85;9.75;;;23.50;74.90;;;;;;5094967;28;20043;-78
2022/07/31 11:53:24;;;;;;;10.73;9.70;;;23.40;74.40;;;;;;5076223;28;20089;-78
2022/07/31 11:55:53;;;;;;;10.27;9.20;;;23.30;74.50;;;;;;5076075;28;20054;-78
2022/07/31 11:58:20;;;;;;;9.70;8.70;;;23.40;74.70;;;;;;5094016;28;20432;-78
2022/07/31 12:00:54;;;;;;;10.40;9.50;;;23.40;74.70;;;;;;5093992;28;20052;-77
2022/07/31 12:03:27;;;;;;;9.98;8.98;;;23.60;74.70;;;;;;5094338;28;20036;-78
2022/07/31 12:05:53;;;;;;;10.23;9.32;;;23.90;74.20;;;;;;5093686;28;20484;-78
2022/07/31 12:08:21;;;;;;;9.35;8.55;;;24.20;73.70;;;;;;5093376;28;20028;-77
2022/07/31 12:10:47;;;;;;;9.70;8.45;;;24.40;73.20;;;;;;5093630;28;20452;-78
2022/07/31 12:13:15;;;;;;;10.00;8.00;;;24.60;72.80;;;;;;5093524;28;20421;-79
2022/07/31 12:16:10;;;;;;;8.27;7.57;;;24.70;72.50;;;;;;5092260;28;20035;-79
2022/07/31 12:18:57;;;;;;;8.20;7.40;;;24.70;72.30;;;;;;5093162;28;20055;-76
2022/07/31 12:21:38;;;;;;;8.65;7.78;;;24.60;72.20;;;;;;5092343;28;20030;-77
2022/07/31 12:24:13;;;;;;;9.35;8.45;;;24.50;72.20;;;;;;5093712;28;20038;-79
2022/07/31 12:26:43;;;;;;;7.70;6.88;;;24.40;72.20;;;;;;5074569;28;20032;-80
2022/07/31 12:29:10;;;;;;;8.18;7.35;;;24.30;72.20;;;;;;5093398;28;20036;-78
2022/07/31 12:31:49;;;;;;;8.82;6.85;;;24.20;72.10;;;;;;5093466;28;20085;-78
2022/07/31 12:34:41;;;;;;;5.93;5.32;;;24.20;72.00;;;;;;5091540;28;20457;-79
2022/07/31 12:37:12;;;;;;;6.57;5.97;;;24.20;72.00;;;;;;5093299;28;20036;-79
2022/07/31 12:39:51;;;;;;;6.32;5.75;;;24.20;71.90;;;;;;5091539;28;20491;-79
2022/07/31 12:42:21;;;;;;;6.63;5.60;;;24.20;71.60;;;;;;5093505;28;20024;-79
2022/07/31 12:44:48;;;;;;;7.72;5.78;;;24.20;71.60;;;;;;5093320;28;20031;-78
2022/07/31 12:47:29;;;;;;;5.97;5.43;;;24.10;71.50;;;;;;5091884;28;20168;-79
2022/07/31 12:49:55;;;;;;;6.22;5.65;;;24.10;71.70;;;;;;5091814;28;20032;-78
2022/07/31 12:52:22;;;;;;;6.45;5.82;;;24.00;71.70;;;;;;5093316;28;20086;-78
2022/07/31 12:54:48;;;;;;;7.70;5.70;;;23.90;71.70;;;;;;5091762;28;20107;-79
2022/07/31 12:57:14;;;;;;;6.28;4.80;;;24.00;71.60;;;;;;5093136;28;20487;-79